EXS9KL EGCC-GCTS
Flight info
| Callsign | EXS9KL |
|---|---|
| Flight time | N/A |
| Altitude | 41000 |
| Route | KUXEM P17 BEPHE DCT OSSEP DCT ELNIF DCT ZESPE DCT KLAKI DCT SALCO DCT IBISU DCT BALDA DCT ABUPI DCT XAMAX DCT SRA DCT DEKUS DCT BEXAL UN866 KONBA |
| Aircraft | A332/H-SDE3GHIJ2J3J5M1RVWXY/LB2D1 |
Departure
| Time | N/A |
|---|---|
| Airport | Manchester Airport (EGCC) |
Arrival
| Time | 2026-05-04 19:57 |
|---|---|
| Airport | Tenerife Sur Airport (GCTS) |
| Time | Latitude | Longitude | Altitude | Speed | Heading |
|---|---|---|---|---|---|
| 2026-05-04 19:26 | 29.85061 | -16.21316 | 41095 ft | 415 kts | 213° |
| 2026-05-04 19:27 | 29.79971 | -16.24460 | 41098 ft | 415 kts | 213° |
| 2026-05-04 19:27 | 29.74884 | -16.27598 | 41098 ft | 415 kts | 213° |
| 2026-05-04 19:28 | 29.69816 | -16.30720 | 41095 ft | 415 kts | 213° |
| 2026-05-04 19:28 | 29.64721 | -16.33856 | 41096 ft | 415 kts | 213° |
| 2026-05-04 19:29 | 29.59658 | -16.37040 | 41098 ft | 414 kts | 217° |
| 2026-05-04 19:29 | 29.55112 | -16.41055 | 41002 ft | 410 kts | 222° |
| 2026-05-04 19:29 | 29.52913 | -16.43139 | 40471 ft | 409 kts | 223° |
| 2026-05-04 19:30 | 29.50725 | -16.45214 | 40045 ft | 406 kts | 223° |
| 2026-05-04 19:30 | 29.48554 | -16.47268 | 39672 ft | 401 kts | 223° |
| 2026-05-04 19:30 | 29.46441 | -16.49263 | 39307 ft | 396 kts | 223° |
| 2026-05-04 19:30 | 29.44301 | -16.51282 | 38929 ft | 391 kts | 223° |
| 2026-05-04 19:31 | 29.42229 | -16.53233 | 38516 ft | 387 kts | 223° |
| 2026-05-04 19:31 | 29.40158 | -16.55183 | 38124 ft | 383 kts | 223° |
| 2026-05-04 19:31 | 29.38108 | -16.57112 | 37762 ft | 378 kts | 223° |
| 2026-05-04 19:31 | 29.36088 | -16.59011 | 37400 ft | 374 kts | 223° |
| 2026-05-04 19:32 | 29.34092 | -16.60886 | 37009 ft | 369 kts | 223° |
| 2026-05-04 19:32 | 29.32106 | -16.62752 | 36657 ft | 367 kts | 223° |
| 2026-05-04 19:32 | 29.30133 | -16.64605 | 36294 ft | 367 kts | 223° |
| 2026-05-04 19:32 | 29.28156 | -16.66463 | 35918 ft | 370 kts | 223° |
| 2026-05-04 19:33 | 29.26153 | -16.68343 | 35508 ft | 372 kts | 223° |
| 2026-05-04 19:33 | 29.24162 | -16.70209 | 35118 ft | 375 kts | 223° |
| 2026-05-04 19:33 | 29.22129 | -16.72114 | 34653 ft | 378 kts | 223° |
| 2026-05-04 19:33 | 29.20083 | -16.74030 | 34160 ft | 381 kts | 223° |
| 2026-05-04 19:34 | 29.18020 | -16.75961 | 33550 ft | 385 kts | 223° |
| 2026-05-04 19:34 | 29.15937 | -16.77909 | 32914 ft | 388 kts | 223° |
| 2026-05-04 19:34 | 29.13834 | -16.79875 | 32302 ft | 391 kts | 223° |
| 2026-05-04 19:34 | 29.11715 | -16.81855 | 31655 ft | 395 kts | 223° |
| 2026-05-04 19:35 | 29.09314 | -16.84096 | 30910 ft | 399 kts | 223° |
| 2026-05-04 19:35 | 29.07155 | -16.86110 | 30209 ft | 402 kts | 223° |
| 2026-05-04 19:35 | 29.04985 | -16.88133 | 29578 ft | 401 kts | 223° |
| 2026-05-04 19:35 | 29.02826 | -16.90143 | 29165 ft | 399 kts | 223° |
| 2026-05-04 19:36 | 29.00680 | -16.92141 | 28710 ft | 396 kts | 223° |
| 2026-05-04 19:36 | 28.98553 | -16.94120 | 28268 ft | 393 kts | 223° |
| 2026-05-04 19:36 | 28.96439 | -16.96081 | 27784 ft | 391 kts | 222° |
| 2026-05-04 19:36 | 28.94216 | -16.97876 | 26880 ft | 400 kts | 216° |
| 2026-05-04 19:37 | 28.91741 | -16.99344 | 25403 ft | 405 kts | 207° |
| 2026-05-04 19:37 | 28.89015 | -17.00314 | 23705 ft | 417 kts | 197° |
| 2026-05-04 19:37 | 28.86103 | -17.00627 | 22115 ft | 422 kts | 186° |
| 2026-05-04 19:37 | 28.83230 | -17.00501 | 21532 ft | 398 kts | 184° |
| 2026-05-04 19:38 | 28.80551 | -17.00334 | 21065 ft | 374 kts | 184° |
| 2026-05-04 19:38 | 28.77979 | -17.00186 | 20510 ft | 370 kts | 184° |
| 2026-05-04 19:38 | 28.75393 | -17.00054 | 19951 ft | 372 kts | 184° |
| 2026-05-04 19:38 | 28.72803 | -16.99923 | 19372 ft | 373 kts | 184° |
| 2026-05-04 19:39 | 28.71083 | -16.99838 | 19008 ft | 373 kts | 184° |
| 2026-05-04 19:39 | 28.68492 | -16.99707 | 18455 ft | 371 kts | 184° |
| 2026-05-04 19:39 | 28.65914 | -16.99577 | 17842 ft | 370 kts | 183° |
| 2026-05-04 19:39 | 28.63358 | -16.99448 | 17279 ft | 366 kts | 183° |
| 2026-05-04 19:40 | 28.60827 | -16.99320 | 16729 ft | 362 kts | 183° |
| 2026-05-04 19:40 | 28.58322 | -16.99194 | 16178 ft | 358 kts | 183° |
| 2026-05-04 19:40 | 28.55832 | -16.99070 | 15619 ft | 355 kts | 183° |
| 2026-05-04 19:40 | 28.53380 | -16.98948 | 15090 ft | 352 kts | 183° |
| 2026-05-04 19:41 | 28.50967 | -16.98828 | 14551 ft | 349 kts | 183° |
| 2026-05-04 19:41 | 28.48547 | -16.98707 | 14005 ft | 347 kts | 182° |
| 2026-05-04 19:41 | 28.46145 | -16.98588 | 13422 ft | 344 kts | 182° |
| 2026-05-04 19:41 | 28.43765 | -16.98470 | 12869 ft | 340 kts | 182° |
| 2026-05-04 19:42 | 28.41407 | -16.98353 | 12344 ft | 337 kts | 181° |
| 2026-05-04 19:42 | 28.39075 | -16.98237 | 11800 ft | 334 kts | 181° |
| 2026-05-04 19:42 | 28.36769 | -16.98123 | 11285 ft | 332 kts | 181° |
| 2026-05-04 19:42 | 28.34466 | -16.98009 | 10769 ft | 330 kts | 180° |
| 2026-05-04 19:43 | 28.32222 | -16.97896 | 10646 ft | 314 kts | 180° |
| 2026-05-04 19:43 | 28.30128 | -16.97789 | 10576 ft | 297 kts | 180° |
| 2026-05-04 19:43 | 28.28106 | -16.97687 | 10448 ft | 284 kts | 181° |
| 2026-05-04 19:43 | 28.26164 | -16.97590 | 10322 ft | 275 kts | 181° |
| 2026-05-04 19:44 | 28.24282 | -16.97493 | 10194 ft | 266 kts | 180° |
| 2026-05-04 19:44 | 28.22471 | -16.97373 | 10126 ft | 254 kts | 180° |
| 2026-05-04 19:44 | 28.20759 | -16.97251 | 9993 ft | 238 kts | 180° |
| 2026-05-04 19:44 | 28.19150 | -16.97138 | 9791 ft | 227 kts | 180° |
| 2026-05-04 19:45 | 28.17583 | -16.97032 | 9467 ft | 224 kts | 180° |
| 2026-05-04 19:45 | 28.16023 | -16.96928 | 9040 ft | 224 kts | 180° |
| 2026-05-04 19:45 | 28.14469 | -16.96825 | 8618 ft | 224 kts | 179° |
| 2026-05-04 19:45 | 28.12933 | -16.96722 | 8337 ft | 217 kts | 179° |
| 2026-05-04 19:46 | 28.11438 | -16.96621 | 8024 ft | 213 kts | 179° |
| 2026-05-04 19:46 | 28.09974 | -16.96523 | 7788 ft | 213 kts | 179° |
| 2026-05-04 19:46 | 28.08494 | -16.96425 | 7570 ft | 212 kts | 179° |
| 2026-05-04 19:46 | 28.07015 | -16.96326 | 7290 ft | 212 kts | 179° |
| 2026-05-04 19:47 | 28.05542 | -16.96227 | 7016 ft | 212 kts | 179° |
| 2026-05-04 19:47 | 28.04064 | -16.96129 | 6736 ft | 212 kts | 179° |
| 2026-05-04 19:47 | 28.02587 | -16.96030 | 6457 ft | 213 kts | 178° |
| 2026-05-04 19:47 | 28.01110 | -16.95931 | 6174 ft | 213 kts | 178° |
| 2026-05-04 19:48 | 27.99649 | -16.95833 | 5888 ft | 212 kts | 178° |
| 2026-05-04 19:48 | 27.98176 | -16.95734 | 5602 ft | 212 kts | 178° |
| 2026-05-04 19:48 | 27.96697 | -16.95635 | 5320 ft | 212 kts | 178° |
| 2026-05-04 19:48 | 27.95237 | -16.95429 | 5038 ft | 212 kts | 171° |
| 2026-05-04 19:49 | 27.93775 | -16.95377 | 4692 ft | 210 kts | 180° |
| 2026-05-04 19:49 | 27.92435 | -16.94778 | 4533 ft | 212 kts | 136° |
| 2026-05-04 19:49 | 27.91831 | -16.93317 | 4415 ft | 208 kts | 91° |
| 2026-05-04 19:49 | 27.92218 | -16.91773 | 4418 ft | 205 kts | 62° |
| 2026-05-04 19:50 | 27.92851 | -16.90362 | 4416 ft | 198 kts | 62° |
| 2026-05-04 19:50 | 27.93407 | -16.88942 | 4417 ft | 196 kts | 66° |
| 2026-05-04 19:50 | 27.93910 | -16.87508 | 4414 ft | 196 kts | 67° |
| 2026-05-04 19:50 | 27.94407 | -16.86068 | 4408 ft | 196 kts | 67° |
| 2026-05-04 19:51 | 27.94899 | -16.84658 | 4408 ft | 196 kts | 67° |
| 2026-05-04 19:51 | 27.95399 | -16.83228 | 4407 ft | 196 kts | 67° |
| 2026-05-04 19:51 | 27.95899 | -16.81795 | 4395 ft | 196 kts | 66° |
| 2026-05-04 19:51 | 27.96397 | -16.80365 | 4235 ft | 195 kts | 67° |
| 2026-05-04 19:52 | 27.96893 | -16.78941 | 3950 ft | 194 kts | 67° |
| 2026-05-04 19:52 | 27.97387 | -16.77525 | 3678 ft | 193 kts | 66° |
| 2026-05-04 19:52 | 27.97879 | -16.76112 | 3389 ft | 191 kts | 66° |
| 2026-05-04 19:52 | 27.98364 | -16.74721 | 3133 ft | 190 kts | 66° |
| 2026-05-04 19:53 | 27.98849 | -16.73330 | 2884 ft | 189 kts | 66° |
| 2026-05-04 19:53 | 27.99330 | -16.71949 | 2647 ft | 188 kts | 66° |
| 2026-05-04 19:53 | 27.99807 | -16.70580 | 2390 ft | 186 kts | 66° |
| 2026-05-04 19:53 | 28.00270 | -16.69248 | 2138 ft | 174 kts | 64° |
| 2026-05-04 19:54 | 28.00690 | -16.68041 | 1929 ft | 156 kts | 64° |
| 2026-05-04 19:54 | 28.01069 | -16.66958 | 1724 ft | 145 kts | 66° |
| 2026-05-04 19:54 | 28.01442 | -16.65889 | 1537 ft | 143 kts | 65° |
| 2026-05-04 19:54 | 28.01800 | -16.64860 | 1349 ft | 142 kts | 65° |
| 2026-05-04 19:55 | 28.02154 | -16.63842 | 1147 ft | 134 kts | 66° |
| 2026-05-04 19:55 | 28.02478 | -16.62916 | 991 ft | 122 kts | 69° |
| 2026-05-04 19:55 | 28.02795 | -16.62010 | 839 ft | 126 kts | 69° |
| 2026-05-04 19:55 | 28.03108 | -16.61098 | 623 ft | 120 kts | 72° |
| 2026-05-04 19:56 | 28.03443 | -16.60213 | 528 ft | 123 kts | 72° |
| 2026-05-04 19:56 | 28.03750 | -16.59281 | 364 ft | 126 kts | 69° |
| 2026-05-04 19:56 | 28.04057 | -16.58384 | 208 ft | 119 kts | 69° |
| 2026-05-04 19:56 | 28.04303 | -16.57648 | 201 ft | 75 kts | 69° |
| 2026-05-04 19:57 | 28.04478 | -16.57160 | 206 ft | 59 kts | 68° |
| 2026-05-04 19:57 | 28.04596 | -16.56951 | 217 ft | 25 kts | 49° |
| 2026-05-04 19:57 | 28.04697 | -16.56826 | 223 ft | 18 kts | 48° |
| 2026-05-04 19:57 | 28.04746 | -16.56798 | 227 ft | 5 kts | 352° |
| 2026-05-04 19:58 | 28.04770 | -16.56833 | 224 ft | 9 kts | 289° |
| 2026-05-04 19:58 | 28.04761 | -16.56900 | 230 ft | 9 kts | 250° |
| 2026-05-04 19:58 | 28.04732 | -16.56987 | 227 ft | 15 kts | 249° |
| 2026-05-04 19:58 | 28.04690 | -16.57109 | 226 ft | 17 kts | 247° |
| 2026-05-04 19:59 | 28.04638 | -16.57239 | 226 ft | 19 kts | 247° |
| 2026-05-04 19:59 | 28.04584 | -16.57389 | 226 ft | 20 kts | 247° |
| 2026-05-04 19:59 | 28.04582 | -16.57434 | 226 ft | 3 kts | 290° |
| 2026-05-04 19:59 | 28.04606 | -16.57458 | 226 ft | 9 kts | 320° |
| 2026-05-04 20:00 | 28.04667 | -16.57503 | 228 ft | 7 kts | 298° |
| 2026-05-04 20:00 | 28.04662 | -16.57556 | 228 ft | 11 kts | 252° |
| 2026-05-04 20:00 | 28.04630 | -16.57657 | 228 ft | 7 kts | 249° |
| 2026-05-04 20:00 | 28.04629 | -16.57689 | 228 ft | 3 kts | 287° |
| 2026-05-04 20:01 | 28.04642 | -16.57708 | 230 ft | 4 kts | 313° |
| 2026-05-04 20:01 | 28.04666 | -16.57722 | 229 ft | 6 kts | 337° |
| 2026-05-04 20:01 | 28.04686 | -16.57731 | 229 ft | 3 kts | 338° |
| 2026-05-04 20:01 | 28.04694 | -16.57735 | 233 ft | 0 kts | 338° |
| 2026-05-04 20:07 | 28.04694 | -16.57734 | 202 ft | 0 kts | 338° |